Time;durP1;ratioP1;P1;durP2;ratioP2;P2;SDS_P1;SDS_P2;PMS_P1;PMS_P2;Temp;Humidity;BMP_temperature;BMP_pressure;BME280_temperature;BME280_humidity;BME280_pressure;Samples;Min_cycle;Max_cycle;Signal;HPM_P1;HPM_P2
2024/03/11 00:00:13;;;;;;;46.83;28.83;;;8.50;99.90;;;;;;5046360;28;20144;-66
2024/03/11 00:02:40;;;;;;;47.42;29.27;;;8.50;99.90;;;;;;5044120;28;20500;-65
2024/03/11 00:05:08;;;;;;;47.25;28.20;;;8.50;99.90;;;;;;5046336;28;20053;-66
2024/03/11 00:07:37;;;;;;;46.05;28.45;;;8.50;99.90;;;;;;5048055;28;20053;-65
2024/03/11 00:10:11;;;;;;;51.20;30.23;;;8.40;99.90;;;;;;5044580;28;20048;-67
2024/03/11 00:12:44;;;;;;;42.20;25.67;;;8.40;99.90;;;;;;5036820;28;20069;-66
2024/03/11 00:15:12;;;;;;;44.65;25.58;;;8.40;99.90;;;;;;5035406;28;20048;-65
2024/03/11 00:17:42;;;;;;;44.65;27.48;;;8.40;99.90;;;;;;5046660;28;20072;-66
2024/03/11 00:20:09;;;;;;;45.78;27.52;;;8.40;99.90;;;;;;5043518;28;20049;-67
2024/03/11 00:22:36;;;;;;;46.15;28.17;;;8.30;99.90;;;;;;5046240;28;20080;-65
2024/03/11 00:25:04;;;;;;;48.60;28.98;;;8.30;99.90;;;;;;5037933;28;20129;-66
2024/03/11 00:27:31;;;;;;;44.17;28.40;;;8.30;99.90;;;;;;5058813;28;20770;-66
2024/03/11 00:29:58;;;;;;;49.15;28.73;;;8.30;99.90;;;;;;5039486;28;20114;-67
2024/03/11 00:32:25;;;;;;;48.72;30.13;;;8.30;99.90;;;;;;5046979;28;20167;-66
2024/03/11 00:34:52;;;;;;;45.28;26.77;;;8.30;99.90;;;;;;5047260;28;20064;-66
2024/03/11 00:37:19;;;;;;;54.22;31.15;;;8.30;99.90;;;;;;5045021;28;20045;-64
2024/03/11 00:39:45;;;;;;;46.90;27.38;;;8.30;99.90;;;;;;5043499;28;20134;-67
2024/03/11 00:42:12;;;;;;;51.83;29.70;;;8.30;99.90;;;;;;5045833;28;20045;-66
2024/03/11 00:44:39;;;;;;;49.50;29.70;;;8.30;99.90;;;;;;5046963;28;20048;-66
2024/03/11 00:47:06;;;;;;;51.05;28.98;;;8.30;99.90;;;;;;5046303;28;20073;-66
2024/03/11 00:49:33;;;;;;;47.58;30.17;;;8.30;99.90;;;;;;5046804;28;20103;-66
2024/03/11 00:52:00;;;;;;;49.58;30.08;;;8.30;99.90;;;;;;5046644;28;20098;-67
2024/03/11 00:54:27;;;;;;;47.97;29.75;;;8.20;99.90;;;;;;5046974;28;20057;-66
2024/03/11 00:56:55;;;;;;;48.38;29.33;;;8.20;99.90;;;;;;5047273;28;20064;-66
2024/03/11 00:59:22;;;;;;;52.28;31.55;;;8.20;99.90;;;;;;5045828;28;20045;-66
2024/03/11 01:01:49;;;;;;;59.53;30.85;;;8.10;99.90;;;;;;5046862;28;20049;-66
2024/03/11 01:04:16;;;;;;;54.95;31.75;;;8.10;99.90;;;;;;5025193;28;20149;-66
2024/03/11 01:06:43;;;;;;;51.45;31.35;;;8.10;99.90;;;;;;5045092;28;20134;-66
2024/03/11 01:09:25;;;;;;;55.60;33.65;;;8.10;99.90;;;;;;5045945;28;20140;-66
2024/03/11 01:11:52;;;;;;;55.35;31.80;;;8.20;99.90;;;;;;5044987;28;20106;-66
2024/03/11 01:14:19;;;;;;;55.55;32.53;;;8.10;99.90;;;;;;5046411;28;20055;-66
2024/03/11 01:16:46;;;;;;;61.33;32.65;;;8.10;99.90;;;;;;5043003;28;20522;-65
2024/03/11 01:19:18;;;;;;;60.95;33.40;;;8.20;99.90;;;;;;5044112;28;20067;-66
2024/03/11 01:21:49;;;;;;;60.53;32.85;;;8.20;99.90;;;;;;5045280;28;20085;-65
2024/03/11 01:24:16;;;;;;;56.08;32.92;;;8.20;99.90;;;;;;5042060;28;20049;-66
2024/03/11 01:26:47;;;;;;;55.90;32.78;;;8.20;99.90;;;;;;5043592;28;20045;-65
2024/03/11 01:29:17;;;;;;;60.25;33.72;;;8.20;99.90;;;;;;5047672;28;20053;-66
2024/03/11 01:31:45;;;;;;;54.67;32.80;;;8.10;99.90;;;;;;5042909;28;20128;-68
2024/03/11 01:34:13;;;;;;;59.95;34.90;;;8.30;99.90;;;;;;5047883;28;20094;-65
2024/03/11 01:36:39;;;;;;;53.67;32.47;;;8.20;99.90;;;;;;5031292;28;20073;-66
2024/03/11 01:39:09;;;;;;;62.10;34.40;;;8.30;99.90;;;;;;5038529;28;20067;-65
2024/03/11 01:41:37;;;;;;;71.35;35.33;;;8.20;99.90;;;;;;5045255;28;20064;-66
2024/03/11 01:44:07;;;;;;;60.20;34.67;;;8.20;99.90;;;;;;5042535;28;20060;-66
2024/03/11 01:46:34;;;;;;;64.65;35.90;;;8.20;99.90;;;;;;5043913;28;20483;-65
2024/03/11 01:49:04;;;;;;;63.47;36.38;;;8.20;99.90;;;;;;5043562;28;20861;-66
2024/03/11 01:51:32;;;;;;;66.30;34.33;;;8.10;99.90;;;;;;5045362;28;20057;-65
2024/03/11 01:53:59;;;;;;;75.18;36.88;;;8.10;99.90;;;;;;5043665;28;20453;-66
2024/03/11 01:56:28;;;;;;;69.72;38.42;;;8.10;99.90;;;;;;5046109;28;20057;-65
2024/03/11 01:58:57;;;;;;;62.38;35.75;;;8.10;99.90;;;;;;5033399;28;20120;-65
2024/03/11 02:01:24;;;;;;;68.43;35.88;;;8.10;99.90;;;;;;5037113;28;20551;-65
2024/03/11 02:03:51;;;;;;;67.60;37.90;;;8.10;99.90;;;;;;5042167;28;20057;-66
2024/03/11 02:06:18;;;;;;;67.50;33.78;;;8.10;99.90;;;;;;5045646;28;20049;-65
2024/03/11 02:08:44;;;;;;;69.82;36.15;;;8.10;99.90;;;;;;5045738;28;20131;-65
2024/03/11 02:11:11;;;;;;;68.15;39.05;;;8.10;99.90;;;;;;5044862;28;20041;-65
2024/03/11 02:13:38;;;;;;;73.93;36.78;;;8.10;99.90;;;;;;5042545;28;20055;-66
2024/03/11 02:16:06;;;;;;;72.53;36.75;;;8.10;99.90;;;;;;5043575;28;20122;-65
2024/03/11 02:18:34;;;;;;;67.68;35.72;;;8.10;99.90;;;;;;5042006;28;20183;-65
2024/03/11 02:21:02;;;;;;;67.78;37.53;;;8.10;99.90;;;;;;5044573;28;20545;-66
2024/03/11 02:23:28;;;;;;;66.57;37.78;;;8.10;99.90;;;;;;5034019;28;20136;-66
2024/03/11 02:25:55;;;;;;;66.55;35.50;;;8.20;99.90;;;;;;5039132;28;20228;-66
2024/03/11 02:28:22;;;;;;;65.47;37.03;;;8.10;99.90;;;;;;5038363;28;20041;-66
2024/03/11 02:30:49;;;;;;;71.82;36.10;;;8.20;99.90;;;;;;5042176;28;20493;-66
2024/03/11 02:33:16;;;;;;;63.90;34.67;;;8.20;99.90;;;;;;5044644;28;20045;-66
2024/03/11 02:35:43;;;;;;;81.90;42.13;;;8.20;99.90;;;;;;5043517;28;20432;-66
2024/03/11 02:38:10;;;;;;;73.18;39.33;;;8.20;99.90;;;;;;5043347;28;20045;-66
2024/03/11 02:40:39;;;;;;;80.30;37.20;;;8.10;99.90;;;;;;5036245;28;20511;-66
2024/03/11 02:43:07;;;;;;;76.35;35.97;;;8.10;99.90;;;;;;5044158;28;20044;-66
2024/03/11 02:45:34;;;;;;;85.47;41.75;;;8.10;99.90;;;;;;5045956;28;20085;-65
2024/03/11 02:48:01;;;;;;;80.38;39.58;;;8.10;99.90;;;;;;5047429;28;20056;-66
2024/03/11 02:50:28;;;;;;;86.05;39.47;;;8.10;99.90;;;;;;5033887;28;20057;-65
2024/03/11 02:52:56;;;;;;;75.25;40.35;;;8.10;99.90;;;;;;5044728;28;20467;-65
2024/03/11 02:55:23;;;;;;;73.40;38.22;;;8.10;99.90;;;;;;5044419;28;20045;-65
2024/03/11 02:57:51;;;;;;;87.25;39.95;;;8.00;99.90;;;;;;5041959;28;20045;-65
2024/03/11 03:00:18;;;;;;;81.53;40.50;;;8.00;99.90;;;;;;5034123;28;20041;-65
2024/03/11 03:02:45;;;;;;;79.05;38.45;;;8.00;99.90;;;;;;5049547;28;20044;-65
2024/03/11 03:05:12;;;;;;;87.35;41.95;;;8.10;99.90;;;;;;5050829;28;20492;-65
2024/03/11 03:07:39;;;;;;;93.97;41.70;;;8.00;99.90;;;;;;5051625;28;20060;-65
2024/03/11 03:10:07;;;;;;;81.65;40.65;;;8.00;99.90;;;;;;5050174;28;20099;-65
2024/03/11 03:12:35;;;;;;;83.05;39.13;;;8.10;99.90;;;;;;5051869;28;20067;-65
2024/03/11 03:15:06;;;;;;;81.22;39.60;;;8.10;99.90;;;;;;5051784;28;20557;-66
2024/03/11 03:17:33;;;;;;;78.72;40.50;;;8.10;99.90;;;;;;5049998;28;20052;-66
2024/03/11 03:20:00;;;;;;;74.93;38.45;;;8.10;99.90;;;;;;5047775;28;20044;-65
2024/03/11 03:22:27;;;;;;;84.25;41.03;;;8.10;99.90;;;;;;5051140;28;20131;-65
2024/03/11 03:24:54;;;;;;;79.63;37.88;;;8.10;99.90;;;;;;5043970;28;21283;-65
2024/03/11 03:27:21;;;;;;;73.93;38.90;;;8.10;99.90;;;;;;5041212;28;20095;-65
2024/03/11 03:29:48;;;;;;;77.82;38.45;;;8.10;99.90;;;;;;5042347;28;20541;-64
2024/03/11 03:32:19;;;;;;;76.53;38.55;;;8.10;99.90;;;;;;5050838;28;20063;-65
2024/03/11 03:34:46;;;;;;;85.88;38.35;;;8.10;99.90;;;;;;5050589;28;20069;-65
2024/03/11 03:37:14;;;;;;;78.68;38.08;;;8.10;99.90;;;;;;5051122;28;20041;-65
2024/03/11 03:39:41;;;;;;;73.78;38.40;;;8.10;99.90;;;;;;5051283;28;20075;-65
2024/03/11 03:42:09;;;;;;;72.32;38.35;;;8.10;99.90;;;;;;5045490;28;20049;-65
2024/03/11 03:44:36;;;;;;;77.88;38.00;;;8.10;99.90;;;;;;5054752;28;20055;-66
2024/03/11 03:47:03;;;;;;;67.28;35.78;;;8.10;99.90;;;;;;5054324;28;20045;-65
2024/03/11 03:49:30;;;;;;;90.18;40.90;;;8.10;99.90;;;;;;5053449;28;20056;-65
2024/03/11 03:51:57;;;;;;;86.50;38.67;;;8.10;99.90;;;;;;5050441;28;20087;-65
2024/03/11 03:54:24;;;;;;;88.82;40.72;;;8.00;99.90;;;;;;5055834;28;20040;-65
2024/03/11 03:56:52;;;;;;;85.47;40.38;;;8.00;99.90;;;;;;5053189;28;20131;-64
2024/03/11 03:59:19;;;;;;;77.80;39.05;;;8.00;99.90;;;;;;5053180;28;20087;-65
2024/03/11 04:01:46;;;;;;;81.63;38.95;;;7.90;99.90;;;;;;5054148;28;20049;-65
2024/03/11 04:04:13;;;;;;;88.78;42.00;;;7.90;99.90;;;;;;5052682;28;20057;-66
2024/03/11 04:06:39;;;;;;;81.28;39.00;;;7.90;99.90;;;;;;5052119;28;20083;-67
2024/03/11 04:09:09;;;;;;;83.15;38.60;;;7.90;99.90;;;;;;5050255;28;20561;-65
2024/03/11 04:11:36;;;;;;;82.97;38.92;;;7.90;99.90;;;;;;5051520;28;20052;-68
2024/03/11 04:14:03;;;;;;;83.65;41.58;;;7.90;99.90;;;;;;5048444;28;20506;-66
2024/03/11 04:16:30;;;;;;;85.80;40.03;;;7.80;99.90;;;;;;5044687;28;20084;-66
2024/03/11 04:18:57;;;;;;;77.18;40.80;;;7.90;99.90;;;;;;5048701;28;20552;-67
2024/03/11 04:21:24;;;;;;;94.18;42.75;;;7.90;99.90;;;;;;5049623;28;20052;-65
2024/03/11 04:23:51;;;;;;;87.40;38.72;;;7.90;99.90;;;;;;5048723;28;20057;-64
2024/03/11 04:26:17;;;;;;;84.80;39.35;;;7.80;99.90;;;;;;5048102;28;20057;-65
2024/03/11 04:28:44;;;;;;;79.00;38.45;;;7.80;99.90;;;;;;5047864;28;20071;-65
2024/03/11 04:31:11;;;;;;;77.55;39.03;;;7.80;99.90;;;;;;5048284;28;20049;-64
2024/03/11 04:33:39;;;;;;;87.75;41.60;;;7.80;99.90;;;;;;5059704;28;20133;-64
2024/03/11 04:36:06;;;;;;;79.50;36.05;;;7.90;99.90;;;;;;5048751;28;20052;-65
2024/03/11 04:38:33;;;;;;;81.85;39.30;;;7.90;99.90;;;;;;5048741;28;20099;-66
2024/03/11 04:41:02;;;;;;;71.05;38.15;;;7.90;99.90;;;;;;5047833;28;20047;-66
2024/03/11 04:43:29;;;;;;;77.72;38.08;;;7.90;99.90;;;;;;5048325;28;20514;-65
2024/03/11 04:45:56;;;;;;;82.82;37.97;;;7.90;99.90;;;;;;5050562;28;20107;-65
2024/03/11 04:48:23;;;;;;;73.88;36.47;;;8.00;99.90;;;;;;5058093;28;20095;-66
2024/03/11 04:50:50;;;;;;;76.22;37.90;;;7.90;99.90;;;;;;5048395;28;20045;-65
2024/03/11 04:53:17;;;;;;;84.72;38.55;;;7.90;99.90;;;;;;5048305;28;20060;-67
2024/03/11 04:55:44;;;;;;;74.15;38.38;;;7.90;99.90;;;;;;5049226;28;20049;-65
2024/03/11 04:58:11;;;;;;;87.25;38.65;;;7.90;99.90;;;;;;5049931;28;20057;-65
2024/03/11 05:00:38;;;;;;;88.93;41.45;;;7.90;99.90;;;;;;5048717;28;20057;-65
2024/03/11 05:03:06;;;;;;;83.32;36.15;;;7.90;99.90;;;;;;5042869;28;20045;-65
2024/03/11 05:05:36;;;;;;;89.22;42.00;;;7.90;99.90;;;;;;5049816;28;20068;-66
2024/03/11 05:08:04;;;;;;;76.68;39.53;;;7.90;99.90;;;;;;5047450;28;20076;-67
2024/03/11 05:10:31;;;;;;;86.53;38.78;;;7.90;99.90;;;;;;5047819;28;20522;-66
2024/03/11 05:12:58;;;;;;;82.43;36.95;;;8.00;99.90;;;;;;5048634;28;20064;-64
2024/03/11 05:15:28;;;;;;;88.65;39.65;;;8.00;99.90;;;;;;5050073;28;20128;-66
2024/03/11 05:17:55;;;;;;;78.32;38.05;;;8.00;99.90;;;;;;5047752;28;20049;-67
2024/03/11 05:20:22;;;;;;;77.32;39.83;;;7.90;99.90;;;;;;5042310;28;20420;-65
2024/03/11 05:22:50;;;;;;;67.22;36.28;;;7.90;99.90;;;;;;5047958;28;20077;-66
2024/03/11 05:25:20;;;;;;;90.63;38.72;;;8.00;99.90;;;;;;5054140;28;20072;-65
2024/03/11 05:27:47;;;;;;;81.88;37.08;;;7.90;99.90;;;;;;5051800;28;20045;-65
2024/03/11 05:30:15;;;;;;;73.95;37.20;;;7.90;99.90;;;;;;5048778;28;20454;-65
2024/03/11 05:32:42;;;;;;;75.03;36.95;;;7.90;99.90;;;;;;5051987;28;20099;-69
2024/03/11 05:35:09;;;;;;;88.47;41.53;;;8.00;99.90;;;;;;5053266;28;20128;-65
2024/03/11 05:37:36;;;;;;;80.07;38.17;;;7.90;99.90;;;;;;5051098;28;20049;-66
2024/03/11 05:40:05;;;;;;;79.50;38.83;;;8.00;99.90;;;;;;5049380;28;20041;-66
2024/03/11 05:42:33;;;;;;;73.25;37.28;;;7.90;99.90;;;;;;5049467;28;20041;-65
2024/03/11 05:45:01;;;;;;;76.28;38.38;;;7.90;99.90;;;;;;5052270;28;20056;-65
2024/03/11 05:47:28;;;;;;;84.13;38.63;;;8.00;99.90;;;;;;5051853;28;20067;-67
2024/03/11 05:49:55;;;;;;;79.60;37.80;;;8.00;99.90;;;;;;5049944;28;20075;-65
2024/03/11 05:52:25;;;;;;;77.68;38.40;;;8.00;99.90;;;;;;5050740;28;20037;-67
2024/03/11 05:54:53;;;;;;;72.60;37.63;;;8.00;99.90;;;;;;5048638;28;20041;-67
2024/03/11 05:57:25;;;;;;;76.80;36.85;;;8.00;99.90;;;;;;5053882;28;20076;-66
2024/03/11 05:59:52;;;;;;;86.45;39.65;;;8.00;99.90;;;;;;5051549;28;20052;-66
2024/03/11 06:02:19;;;;;;;79.88;36.25;;;8.00;99.90;;;;;;5052580;28;20045;-66
2024/03/11 06:04:46;;;;;;;86.63;38.30;;;7.90;99.90;;;;;;5050268;28;20063;-66
2024/03/11 06:07:16;;;;;;;76.80;36.03;;;7.90;99.90;;;;;;5047900;28;20045;-68
2024/03/11 06:09:43;;;;;;;84.38;37.72;;;7.90;99.90;;;;;;5050870;28;20067;-66
2024/03/11 06:12:10;;;;;;;79.30;37.17;;;8.00;99.90;;;;;;5051592;28;20056;-67
2024/03/11 06:14:37;;;;;;;88.78;40.45;;;8.00;99.90;;;;;;5048069;28;20135;-66
2024/03/11 06:17:06;;;;;;;84.20;39.60;;;8.00;99.90;;;;;;5050664;28;20064;-67
2024/03/11 06:19:33;;;;;;;77.82;37.90;;;8.00;99.90;;;;;;5050701;28;20091;-66
2024/03/11 06:22:01;;;;;;;81.22;37.92;;;8.00;99.90;;;;;;5047184;28;20128;-67
2024/03/11 06:24:30;;;;;;;72.78;36.85;;;8.00;99.90;;;;;;5050236;28;20111;-66
2024/03/11 06:26:57;;;;;;;79.45;38.67;;;8.00;99.90;;;;;;5052928;28;20048;-66
2024/03/11 06:29:28;;;;;;;83.95;39.17;;;8.00;99.90;;;;;;5045020;28;20144;-66
2024/03/11 06:31:55;;;;;;;80.22;38.05;;;8.00;99.90;;;;;;5051274;28;20041;-66
2024/03/11 06:34:23;;;;;;;83.15;39.00;;;8.00;99.90;;;;;;5047284;28;20044;-66
2024/03/11 06:36:50;;;;;;;81.15;39.17;;;8.00;99.90;;;;;;5046906;28;20063;-66
2024/03/11 06:39:18;;;;;;;90.15;41.67;;;8.00;99.90;;;;;;5049517;28;20407;-67
2024/03/11 06:41:45;;;;;;;87.97;39.47;;;8.00;99.90;;;;;;5047896;28;20091;-67
2024/03/11 06:44:12;;;;;;;82.20;40.72;;;8.00;99.90;;;;;;5047466;28;20061;-66
2024/03/11 06:46:47;;;;;;;86.22;41.03;;;7.90;99.90;;;;;;5034251;28;20052;-67
2024/03/11 06:49:15;;;;;;;92.95;41.15;;;8.00;99.90;;;;;;4699322;28;10000325;-66
2024/03/11 06:51:41;;;;;;;88.63;40.88;;;8.00;99.90;;;;;;5047993;28;20059;-66
2024/03/11 06:54:08;;;;;;;84.10;40.70;;;8.00;99.90;;;;;;5042376;28;20119;-67
2024/03/11 06:56:35;;;;;;;91.30;38.95;;;8.00;99.90;;;;;;5047743;28;20326;-67
2024/03/11 06:59:03;;;;;;;87.00;39.42;;;7.90;99.90;;;;;;5037852;28;20480;-66
2024/03/11 07:01:30;;;;;;;84.80;39.35;;;8.00;99.90;;;;;;5039948;28;20815;-67
2024/03/11 07:03:57;;;;;;;84.50;37.38;;;8.00;99.90;;;;;;5046390;28;20774;-66
2024/03/11 07:06:24;;;;;;;92.65;40.83;;;8.00;99.90;;;;;;5054549;28;20136;-65
2024/03/11 07:08:51;;;;;;;78.80;40.25;;;7.90;99.90;;;;;;5041928;28;20506;-65
2024/03/11 07:11:18;;;;;;;83.13;38.10;;;8.00;99.90;;;;;;5047070;28;20049;-67
2024/03/11 07:13:45;;;;;;;76.93;37.03;;;7.90;99.90;;;;;;5043468;28;20068;-64
2024/03/11 07:16:12;;;;;;;85.15;37.08;;;8.00;99.90;;;;;;5040865;28;20065;-65
2024/03/11 07:18:42;;;;;;;74.50;38.15;;;8.00;99.90;;;;;;5037013;28;20055;-63
2024/03/11 07:21:10;;;;;;;80.82;38.28;;;8.00;99.90;;;;;;5047086;28;20053;-66
2024/03/11 07:23:37;;;;;;;84.57;39.05;;;8.00;99.90;;;;;;5036818;28;20049;-64
2024/03/11 07:26:04;;;;;;;82.10;39.03;;;7.90;99.90;;;;;;5045810;28;20049;-66
2024/03/11 07:28:34;;;;;;;72.78;36.95;;;7.90;99.90;;;;;;5045249;28;20049;-69
2024/03/11 07:31:01;;;;;;;77.55;38.53;;;7.90;99.90;;;;;;5045650;28;20481;-66
2024/03/11 07:33:28;;;;;;;82.43;39.13;;;7.90;99.90;;;;;;5033544;28;20056;-65
2024/03/11 07:35:57;;;;;;;82.68;39.60;;;7.90;99.90;;;;;;5040799;28;20048;-67
2024/03/11 07:38:25;;;;;;;78.40;37.42;;;8.00;99.90;;;;;;5039160;28;20059;-69
2024/03/11 07:40:52;;;;;;;81.25;38.97;;;8.00;99.90;;;;;;5041557;28;20531;-68
2024/03/11 07:43:19;;;;;;;82.22;38.28;;;8.00;99.90;;;;;;5036385;28;20049;-68
2024/03/11 07:45:46;;;;;;;77.15;39.15;;;8.00;99.90;;;;;;5042503;28;20511;-68
2024/03/11 07:48:13;;;;;;;69.55;38.00;;;8.00;99.90;;;;;;5047215;28;20061;-68
2024/03/11 07:50:40;;;;;;;79.03;37.47;;;8.00;99.90;;;;;;5049029;28;20053;-69
2024/03/11 07:53:07;;;;;;;84.50;34.95;;;8.10;99.90;;;;;;5052214;28;20037;-67
2024/03/11 07:55:35;;;;;;;82.38;39.72;;;8.00;99.90;;;;;;5049915;28;20534;-67
2024/03/11 07:58:02;;;;;;;78.20;37.60;;;8.00;99.90;;;;;;5050285;28;20127;-69
2024/03/11 08:00:35;;;;;;;82.60;38.58;;;8.00;99.90;;;;;;5047505;28;20049;-68
2024/03/11 08:03:03;;;;;;;79.45;36.95;;;8.00;99.90;;;;;;5041682;28;20610;-67
2024/03/11 08:05:34;;;;;;;82.60;37.95;;;8.00;99.90;;;;;;5037797;28;20104;-67
2024/03/11 08:08:01;;;;;;;83.22;37.80;;;8.00;99.90;;;;;;5043126;28;20075;-67
2024/03/11 08:10:28;;;;;;;79.20;36.53;;;8.00;99.90;;;;;;5049675;28;20102;-67
2024/03/11 08:12:55;;;;;;;86.03;37.05;;;8.10;99.90;;;;;;5035867;28;20107;-67
2024/03/11 08:15:22;;;;;;;79.95;37.75;;;8.00;99.90;;;;;;5043313;28;20073;-67
2024/03/11 08:17:50;;;;;;;75.35;37.72;;;8.10;99.90;;;;;;5044800;28;20061;-68
2024/03/11 08:20:17;;;;;;;85.47;37.65;;;8.30;99.90;;;;;;5040811;28;20053;-68
2024/03/11 08:22:48;;;;;;;74.63;36.80;;;8.00;99.90;;;;;;5044260;28;20041;-68
2024/03/11 08:25:17;;;;;;;78.80;35.97;;;8.10;99.90;;;;;;5044977;28;20048;-67
2024/03/11 08:27:44;;;;;;;76.70;35.72;;;8.10;99.90;;;;;;5030637;28;20531;-64
2024/03/11 08:30:11;;;;;;;71.93;34.97;;;8.10;99.90;;;;;;5044119;28;20048;-69
2024/03/11 08:32:41;;;;;;;72.18;35.15;;;8.10;99.90;;;;;;5042777;28;20132;-69
2024/03/11 08:35:08;;;;;;;78.03;36.22;;;8.10;99.90;;;;;;5044537;28;20377;-70
2024/03/11 08:37:35;;;;;;;76.35;34.00;;;8.10;99.90;;;;;;5036247;28;20096;-68
2024/03/11 08:40:04;;;;;;;74.22;34.30;;;8.10;99.90;;;;;;5041711;28;20049;-68
2024/03/11 08:42:31;;;;;;;83.00;34.88;;;8.10;99.90;;;;;;5043076;28;20052;-69
2024/03/11 08:44:58;;;;;;;80.20;36.28;;;8.10;99.90;;;;;;5043867;28;20056;-69
2024/03/11 08:47:27;;;;;;;62.58;33.63;;;8.10;99.90;;;;;;5042609;28;20973;-69
2024/03/11 08:49:58;;;;;;;74.25;36.60;;;8.10;99.90;;;;;;5039434;28;20049;-69
2024/03/11 08:52:25;;;;;;;65.55;33.30;;;8.20;99.90;;;;;;5041748;28;20124;-68
2024/03/11 08:54:52;;;;;;;73.05;34.95;;;8.10;99.90;;;;;;5040916;28;20073;-70
2024/03/11 08:57:18;;;;;;;75.07;34.33;;;8.20;99.90;;;;;;5037978;28;20048;-69
2024/03/11 08:59:45;;;;;;;70.60;32.63;;;8.20;99.90;;;;;;5043363;28;20625;-69
2024/03/11 09:02:14;;;;;;;77.70;35.38;;;8.20;99.90;;;;;;5035489;28;20313;-69
2024/03/11 09:04:42;;;;;;;73.20;32.40;;;8.20;99.90;;;;;;5041409;28;20479;-69
2024/03/11 09:07:09;;;;;;;70.32;33.50;;;8.30;99.90;;;;;;5042713;28;20048;-68
2024/03/11 09:09:36;;;;;;;70.00;33.33;;;8.20;99.90;;;;;;5039799;28;20055;-68
2024/03/11 09:12:05;;;;;;;73.05;34.83;;;8.30;99.90;;;;;;5043112;28;20045;-68
2024/03/11 09:14:32;;;;;;;69.18;34.58;;;8.20;99.90;;;;;;5044630;28;20049;-68
2024/03/11 09:17:00;;;;;;;80.20;37.22;;;8.20;99.90;;;;;;5039440;28;20061;-69
2024/03/11 09:19:32;;;;;;;70.78;35.22;;;8.20;99.90;;;;;;5041482;28;20605;-68
2024/03/11 09:21:59;;;;;;;71.70;34.60;;;8.20;99.90;;;;;;5032658;28;20587;-69
2024/03/11 09:24:26;;;;;;;73.53;35.80;;;8.20;99.90;;;;;;5043694;28;20060;-69
2024/03/11 09:26:53;;;;;;;75.28;34.15;;;8.30;99.90;;;;;;5039892;28;20056;-69
2024/03/11 09:29:21;;;;;;;80.78;34.47;;;8.30;99.90;;;;;;5039880;28;20052;-69
2024/03/11 09:31:48;;;;;;;73.25;34.22;;;8.40;99.90;;;;;;5037898;28;20049;-68
2024/03/11 09:34:17;;;;;;;72.38;35.10;;;8.30;99.90;;;;;;5043567;28;20078;-69
2024/03/11 09:36:44;;;;;;;78.68;32.70;;;8.30;99.90;;;;;;5031868;28;20060;-69
2024/03/11 09:39:14;;;;;;;78.00;36.17;;;8.40;99.90;;;;;;5046183;28;20072;-69
2024/03/11 09:41:42;;;;;;;67.13;32.35;;;8.30;99.90;;;;;;5042743;28;20053;-67
2024/03/11 09:44:14;;;;;;;74.40;34.03;;;8.30;99.90;;;;;;5034008;28;20112;-68
2024/03/11 09:46:50;;;;;;;67.78;32.42;;;8.30;99.90;;;;;;5041327;28;20045;-69
2024/03/11 09:49:19;;;;;;;75.72;32.53;;;8.40;99.90;;;;;;5038802;28;20098;-68
2024/03/11 09:51:47;;;;;;;70.10;33.88;;;8.40;99.90;;;;;;5044058;28;20041;-68
2024/03/11 09:54:17;;;;;;;65.50;32.58;;;8.40;99.90;;;;;;5040556;28;20044;-69
2024/03/11 09:56:45;;;;;;;69.20;33.65;;;8.40;99.90;;;;;;5048546;28;20048;-69
2024/03/11 09:59:18;;;;;;;73.35;32.08;;;8.40;99.90;;;;;;5045060;28;20049;-68
2024/03/11 10:01:52;;;;;;;76.80;34.47;;;8.30;99.90;;;;;;5044846;28;20451;-69
2024/03/11 10:04:23;;;;;;;82.05;35.95;;;8.40;99.90;;;;;;5040054;28;20045;-69
2024/03/11 10:07:00;;;;;;;70.47;32.95;;;8.40;99.90;;;;;;5042049;28;20061;-69
2024/03/11 10:09:28;;;;;;;70.30;32.50;;;8.40;99.90;;;;;;5046776;28;20056;-69
2024/03/11 10:12:08;;;;;;;70.18;33.55;;;8.40;99.90;;;;;;5044165;28;20049;-69
2024/03/11 10:14:39;;;;;;;75.32;33.30;;;8.40;99.90;;;;;;5037218;28;20045;-69
2024/03/11 10:17:23;;;;;;;62.67;32.67;;;8.40;99.90;;;;;;5045512;28;20098;-68
2024/03/11 10:19:54;;;;;;;71.32;33.08;;;8.40;99.90;;;;;;5046907;28;20480;-69
2024/03/11 10:22:22;;;;;;;76.13;35.45;;;8.40;99.90;;;;;;5046627;28;20068;-67
2024/03/11 10:24:56;;;;;;;76.40;33.50;;;8.40;99.90;;;;;;5045656;28;20083;-68
2024/03/11 10:27:39;;;;;;;74.93;32.25;;;8.40;99.90;;;;;;5045247;28;20045;-68
2024/03/11 10:30:23;;;;;;;67.43;31.48;;;8.40;99.90;;;;;;5046239;28;20045;-68
2024/03/11 10:32:56;;;;;;;73.80;33.40;;;8.30;99.90;;;;;;5044841;28;20049;-68
2024/03/11 10:35:27;;;;;;;68.63;33.43;;;8.40;99.90;;;;;;5045881;28;20100;-68
2024/03/11 10:38:08;;;;;;;71.13;32.58;;;8.40;99.90;;;;;;5042812;28;20352;-68
2024/03/11 10:40:37;;;;;;;79.65;34.38;;;8.40;99.90;;;;;;5038541;28;20053;-68
2024/03/11 10:43:25;;;;;;;72.95;34.13;;;8.50;99.90;;;;;;5044767;28;20051;-68
2024/03/11 10:45:52;;;;;;;67.43;32.65;;;8.50;99.90;;;;;;5039803;28;20111;-68
2024/03/11 10:48:19;;;;;;;69.60;33.45;;;8.50;99.90;;;;;;5046012;28;20047;-67
2024/03/11 10:50:46;;;;;;;72.68;33.75;;;8.50;99.90;;;;;;5043191;28;20502;-68
2024/03/11 10:53:21;;;;;;;76.25;35.22;;;8.50;99.90;;;;;;5040172;28;20053;-68
2024/03/11 10:55:58;;;;;;;81.47;37.58;;;8.50;99.90;;;;;;5040060;28;20037;-67
2024/03/11 10:58:25;;;;;;;78.35;33.00;;;8.50;99.90;;;;;;5042491;28;20049;-69
2024/03/11 11:00:54;;;;;;;76.80;33.50;;;8.40;99.90;;;;;;5038488;28;20462;-69
2024/03/11 11:03:23;;;;;;;82.28;36.75;;;8.40;99.90;;;;;;5045930;28;20052;-70
2024/03/11 11:06:00;;;;;;;73.15;33.08;;;8.40;99.90;;;;;;5038970;28;20049;-68
2024/03/11 11:08:30;;;;;;;76.70;34.10;;;8.40;99.90;;;;;;5045117;28;20118;-69
2024/03/11 11:11:03;;;;;;;81.13;36.25;;;8.50;99.90;;;;;;5041453;28;20104;-68
2024/03/11 11:13:31;;;;;;;77.60;36.88;;;8.50;99.90;;;;;;5045488;28;20488;-68
2024/03/11 11:15:58;;;;;;;77.32;33.05;;;8.40;99.90;;;;;;5046135;28;20048;-70
2024/03/11 11:18:26;;;;;;;68.35;33.10;;;8.40;99.90;;;;;;5045343;28;20075;-68
2024/03/11 11:20:53;;;;;;;76.50;35.85;;;8.40;99.90;;;;;;5045049;28;20051;-67
2024/03/11 11:23:28;;;;;;;73.78;33.67;;;8.40;99.90;;;;;;5028537;28;20053;-68
2024/03/11 11:25:56;;;;;;;67.82;31.27;;;8.40;99.90;;;;;;5049097;28;20132;-68
2024/03/11 11:28:28;;;;;;;81.35;35.70;;;8.40;99.90;;;;;;5040061;28;20087;-69
2024/03/11 11:31:15;;;;;;;70.30;32.03;;;8.40;99.90;;;;;;5050950;28;20045;-68
2024/03/11 11:33:59;;;;;;;75.60;32.75;;;8.40;99.90;;;;;;5049472;28;20080;-68
2024/03/11 11:36:56;;;;;;;78.38;34.03;;;8.50;99.90;;;;;;5041519;28;20080;-68
2024/03/11 11:39:27;;;;;;;69.95;32.67;;;8.50;99.90;;;;;;5042963;28;20055;-68
2024/03/11 11:41:57;;;;;;;70.15;32.42;;;8.50;99.90;;;;;;5051316;28;20057;-68
2024/03/11 11:44:27;;;;;;;67.30;32.65;;;8.60;99.90;;;;;;5040707;28;20518;-68
2024/03/11 11:47:01;;;;;;;65.45;32.75;;;8.50;99.90;;;;;;5049772;28;20092;-68
2024/03/11 11:49:34;;;;;;;79.05;35.65;;;8.60;99.90;;;;;;5045359;28;20040;-70
2024/03/11 11:52:02;;;;;;;78.32;33.75;;;8.60;99.90;;;;;;5049057;28;20126;-68
2024/03/11 11:54:30;;;;;;;72.82;32.50;;;8.60;99.90;;;;;;5050012;28;20086;-68
2024/03/11 11:57:11;;;;;;;68.93;31.92;;;8.70;99.90;;;;;;5049496;28;20517;-68
2024/03/11 11:59:38;;;;;;;67.72;32.35;;;8.70;99.90;;;;;;5046453;28;20479;-68
2024/03/11 12:02:06;;;;;;;65.35;31.35;;;8.70;99.90;;;;;;5047395;28;20049;-68
2024/03/11 12:04:35;;;;;;;68.93;29.55;;;8.80;99.90;;;;;;5047969;28;20106;-69
2024/03/11 12:07:03;;;;;;;74.72;35.15;;;8.70;99.90;;;;;;5030105;28;20048;-68
2024/03/11 12:09:33;;;;;;;66.30;32.13;;;8.70;99.90;;;;;;5046987;28;20045;-69
2024/03/11 12:12:01;;;;;;;68.80;33.40;;;8.70;99.90;;;;;;5048608;28;20151;-69
2024/03/11 12:14:30;;;;;;;80.88;31.17;;;8.70;99.90;;;;;;5048445;28;20442;-69
2024/03/11 12:17:04;;;;;;;73.47;31.30;;;8.70;99.90;;;;;;5047410;28;20060;-69
2024/03/11 12:19:32;;;;;;;74.50;30.73;;;8.70;99.90;;;;;;5045684;28;20055;-69
2024/03/11 12:21:59;;;;;;;69.50;30.60;;;8.60;99.90;;;;;;5048810;28;20064;-69
2024/03/11 12:24:26;;;;;;;66.03;32.42;;;8.60;99.90;;;;;;5047633;28;20061;-69
2024/03/11 12:26:56;;;;;;;62.22;29.80;;;8.70;99.90;;;;;;5046416;28;20462;-69
2024/03/11 12:29:23;;;;;;;69.95;30.55;;;8.60;99.90;;;;;;5046837;28;20740;-69
2024/03/11 12:31:55;;;;;;;62.58;29.55;;;8.70;99.90;;;;;;5047892;28;20098;-69
2024/03/11 12:34:25;;;;;;;67.30;30.83;;;8.70;99.90;;;;;;5046055;28;20044;-69
2024/03/11 12:36:52;;;;;;;68.30;31.27;;;8.60;99.90;;;;;;5046073;28;20049;-69
2024/03/11 12:39:42;;;;;;;73.05;30.55;;;8.70;99.90;;;;;;5046733;28;20072;-69
2024/03/11 12:42:10;;;;;;;62.83;28.35;;;8.80;99.90;;;;;;5045864;28;20049;-69